Flight Briefing for CMB812

Departure Arrival
Bucholz AAF Airport (PKWA)
Click to view FAA NOTAMS
Daniel K Inouye International Airport (PHNL)
Click to view FAA NOTAMS
Departure Time Arrival Time
N/A N/A
Aircraft Distance
B757-200SF 2127nm
Departure METAR Arrival METAR
PKWA 200840Z AUTO 09012KT 10SM SCT022 28/24 A2984 RMK AO2 T02780235 PHNL 200753Z 00000KT 10SM FEW030 SCT039 BKN055 24/17 A3007 RMK AO2 SLP183 T02390167
Suggested Route
NDJ 1130N/17200E MANRE R584 MCFLY R584 CHOKO


View recent IFR Routes data
Notes
USTRANSCOM CONTRACT FLIGHT

Charts and Procedures

Charts for PKWA
No chart available
Charts for PHNL
No chart available

Windy.com Weather Map